createdAt,value
2023-04-04T00:02:17.719Z,100460.97
2023-04-04T00:04:46.946Z,100325.53
2023-04-04T00:07:16.060Z,100458.78
2023-04-04T00:09:46.428Z,100443.91
2023-04-04T00:12:15.845Z,100451.75
2023-04-04T00:14:45.078Z,100450.19
2023-04-04T00:17:14.330Z,100450.38
2023-04-04T00:19:43.857Z,100454.78
2023-04-04T00:22:13.920Z,100443.97
2023-04-04T00:24:43.084Z,100453.09
2023-04-04T00:27:13.549Z,100420.88
2023-04-04T00:29:42.790Z,100430.38
2023-04-04T00:32:12.253Z,100440.66
2023-04-04T00:34:41.549Z,100430.72
2023-04-04T00:37:13.040Z,100443.75
2023-04-04T00:39:43.477Z,100447.94
2023-04-04T00:42:14.249Z,100418.59
2023-04-04T00:44:43.904Z,100446.06
2023-04-04T00:47:13.776Z,100460.91
2023-04-04T00:49:42.883Z,100457.50
2023-04-04T00:52:12.118Z,100444.66
2023-04-04T00:54:41.788Z,100438.56
2023-04-04T00:57:16.724Z,100408.19
2023-04-04T00:59:46.088Z,100447.09
2023-04-04T01:02:18.026Z,100450.34
2023-04-04T01:04:47.832Z,100447.72
2023-04-04T01:07:20.511Z,100458.56
2023-04-04T01:09:50.016Z,100407.13
2023-04-04T01:12:33.048Z,100430.81
2023-04-04T01:15:02.471Z,100455.91
2023-04-04T01:17:35.429Z,100434.09
2023-04-04T01:20:13.410Z,100445.72
2023-04-04T01:22:58.848Z,100442.09
2023-04-04T01:25:32.244Z,100424.78
2023-04-04T01:28:06.466Z,100424.94
2023-04-04T01:30:37.896Z,100448.88
2023-04-04T01:33:13.138Z,100462.47
2023-04-04T01:36:00.680Z,100450.47
2023-04-04T01:38:36.787Z,100442.19
2023-04-04T01:41:10.396Z,100463.66
2023-04-04T01:43:46.215Z,100469.31
2023-04-04T01:46:17.880Z,100468.31
2023-04-04T01:48:49.715Z,100475.00
2023-04-04T01:51:25.890Z,100483.88
2023-04-04T01:53:56.192Z,100467.63
2023-04-04T01:56:26.908Z,100488.66
2023-04-04T01:58:56.391Z,100481.56
2023-04-04T02:01:25.513Z,100470.28
2023-04-04T02:03:54.850Z,100480.06
2023-04-04T02:06:24.300Z,100490.44
2023-04-04T02:08:54.064Z,100486.56
2023-04-04T02:11:23.947Z,100494.13
2023-04-04T02:13:54.464Z,100458.91
2023-04-04T02:16:25.655Z,100483.03
2023-04-04T02:18:56.892Z,100470.75
2023-04-04T02:21:27.684Z,100470.59
2023-04-04T02:24:03.898Z,100483.16
2023-04-04T02:26:37.484Z,100478.25
2023-04-04T02:29:14.449Z,100451.66
2023-04-04T02:31:45.676Z,100435.63
2023-04-04T02:34:15.266Z,100471.78
2023-04-04T02:36:47.284Z,100451.06
2023-04-04T02:39:16.454Z,100386.78
2023-04-04T02:41:45.581Z,100434.09
2023-04-04T02:44:16.270Z,100454.34
2023-04-04T02:46:45.757Z,100404.03
2023-04-04T02:49:16.828Z,100440.78
2023-04-04T02:51:50.547Z,100446.66
2023-04-04T02:54:19.770Z,100306.88
2023-04-04T02:56:50.012Z,100449.66
2023-04-04T02:59:21.286Z,100454.63
2023-04-04T03:01:50.723Z,100429.31
2023-04-04T03:04:20.544Z,100415.94
2023-04-04T03:06:49.720Z,100441.53
2023-04-04T03:09:19.550Z,100463.91
2023-04-04T03:12:06.227Z,100438.22
2023-04-04T03:14:37.685Z,100481.00
2023-04-04T03:17:09.580Z,100484.13
2023-04-04T03:19:38.951Z,100460.59
2023-04-04T03:22:08.590Z,100461.16
2023-04-04T03:24:38.612Z,100485.56
2023-04-04T03:27:08.285Z,100491.00
2023-04-04T03:29:38.769Z,100493.75
2023-04-04T03:32:08.285Z,100484.50
2023-04-04T03:34:37.595Z,100499.13
2023-04-04T03:37:08.035Z,100481.22
2023-04-04T03:39:37.442Z,100497.50
2023-04-04T03:42:06.805Z,100501.78
2023-04-04T03:44:36.801Z,100473.00
2023-04-04T03:47:07.980Z,100503.59
2023-04-04T03:49:37.885Z,100483.94
2023-04-04T03:52:07.652Z,100479.28
2023-04-04T03:54:36.793Z,100478.53
2023-04-04T03:57:07.794Z,100430.38
2023-04-04T03:59:47.797Z,100458.53
2023-04-04T04:02:18.377Z,100466.13
2023-04-04T04:04:48.114Z,100491.28
2023-04-04T04:07:19.469Z,100466.13
2023-04-04T04:09:48.752Z,100497.59
2023-04-04T04:12:18.015Z,100493.00
2023-04-04T04:14:47.206Z,100507.94
2023-04-04T04:17:18.585Z,100504.97
2023-04-04T04:19:51.358Z,100496.81
2023-04-04T04:22:21.342Z,100508.53
2023-04-04T04:24:50.636Z,100508.06
2023-04-04T04:27:20.019Z,100516.78
2023-04-04T04:29:49.436Z,100510.66
2023-04-04T04:32:21.368Z,100510.28
2023-04-04T04:35:02.478Z,100491.66
2023-04-04T04:37:35.320Z,100489.81
2023-04-04T04:40:14.021Z,100491.03
2023-04-04T04:42:46.759Z,100479.69
2023-04-04T04:45:19.450Z,100510.63
2023-04-04T04:47:58.733Z,100510.06
2023-04-04T04:50:33.636Z,100514.94
2023-04-04T04:53:06.893Z,100512.75
2023-04-04T04:55:36.688Z,100515.16
2023-04-04T04:58:10.899Z,100491.25
2023-04-04T05:00:48.396Z,100481.88
2023-04-04T05:03:25.163Z,100520.78
2023-04-04T05:05:55.663Z,100523.16
2023-04-04T05:08:24.918Z,100505.50
2023-04-04T05:11:38.654Z,100513.97
2023-04-04T05:17:34.602Z,100509.38
2023-04-04T05:20:09.718Z,100525.66
2023-04-04T05:22:48.053Z,100501.13
2023-04-04T05:25:38.976Z,100522.16
2023-04-04T05:28:11.831Z,100518.81
2023-04-04T05:30:42.980Z,100529.34
2023-04-04T05:33:19.339Z,100530.91
2023-04-04T05:36:03.033Z,100555.81
2023-04-04T05:38:37.865Z,100562.56
2023-04-04T05:41:08.064Z,100536.44
2023-04-04T05:43:38.313Z,100519.03
2023-04-04T05:46:11.564Z,100505.97
2023-04-04T05:48:46.983Z,100498.75
2023-04-04T05:51:18.546Z,100510.53
2023-04-04T05:53:58.864Z,100529.03
2023-04-04T05:56:33.628Z,100550.84
2023-04-04T05:59:05.163Z,100550.88
2023-04-04T06:01:41.440Z,100545.59
2023-04-04T06:04:15.085Z,100543.22
2023-04-04T06:06:47.069Z,100556.16
2023-04-04T06:09:19.390Z,100531.69
2023-04-04T06:11:48.981Z,100559.47
2023-04-04T06:14:20.541Z,100565.19
2023-04-04T06:16:50.356Z,100580.94
2023-04-04T06:19:21.438Z,100541.47
2023-04-04T06:21:52.623Z,100568.38
2023-04-04T06:24:22.054Z,100572.50
2023-04-04T06:26:51.838Z,100569.56
2023-04-04T06:29:26.919Z,100567.00
2023-04-04T06:31:59.785Z,100562.84
2023-04-04T06:34:49.889Z,100557.72
2023-04-04T06:37:30.531Z,100569.13
2023-04-04T06:40:11.518Z,100548.03
2023-04-04T06:42:49.312Z,100528.50
2023-04-04T06:45:19.636Z,100422.63
2023-04-04T06:47:50.295Z,100545.59
2023-04-04T06:50:19.786Z,100529.31
2023-04-04T06:52:52.951Z,100541.41
2023-04-04T06:55:23.251Z,100558.00
2023-04-04T06:57:53.540Z,100529.69
2023-04-04T07:00:23.003Z,100541.34
2023-04-04T07:02:59.573Z,100545.25
2023-04-04T07:05:29.724Z,100497.00
2023-04-04T07:08:01.743Z,100528.47
2023-04-04T07:10:34.739Z,100548.53
2023-04-04T07:13:04.687Z,100559.72
2023-04-04T07:15:36.012Z,100488.06
2023-04-04T07:18:07.612Z,100553.22
2023-04-04T07:20:37.681Z,100457.56
2023-04-04T07:23:23.617Z,100559.38
2023-04-04T07:25:53.623Z,100565.38
2023-04-04T07:28:23.083Z,100535.25
2023-04-04T07:30:53.631Z,100554.81
2023-04-04T07:33:25.479Z,100561.56
2023-04-04T07:35:55.149Z,100544.53
2023-04-04T07:38:27.837Z,100571.53
2023-04-04T07:40:57.217Z,100572.56
2023-04-04T07:43:27.424Z,100547.88
2023-04-04T07:45:57.043Z,100560.53
2023-04-04T07:48:26.693Z,100579.75
2023-04-04T07:50:56.367Z,100582.13
2023-04-04T07:53:26.954Z,100573.53
2023-04-04T07:55:56.614Z,100581.63
2023-04-04T07:58:27.184Z,100573.13
2023-04-04T08:00:58.337Z,100572.31
2023-04-04T08:03:29.005Z,100573.69
2023-04-04T08:05:59.463Z,100550.50
2023-04-04T08:08:30.643Z,100581.41
2023-04-04T08:10:59.765Z,100552.84
2023-04-04T08:13:29.065Z,100586.88
2023-04-04T08:15:58.373Z,100575.56
2023-04-04T08:18:27.857Z,100563.91
2023-04-04T08:20:57.047Z,100520.47
2023-04-04T08:23:30.025Z,100572.75
2023-04-04T08:26:03.738Z,100578.00
2023-04-04T08:28:35.060Z,100577.50
2023-04-04T08:31:06.389Z,100504.66
2023-04-04T08:33:47.478Z,100575.47
2023-04-04T08:36:18.828Z,100574.31
2023-04-04T08:38:49.034Z,100563.44
2023-04-04T08:41:22.642Z,100579.13
2023-04-04T08:43:54.876Z,100581.38
2023-04-04T08:46:27.636Z,100571.44
2023-04-04T08:48:58.387Z,100558.34
2023-04-04T08:51:33.559Z,100574.19
2023-04-04T08:54:10.197Z,100513.81
2023-04-04T08:56:46.195Z,100491.63
2023-04-04T08:59:19.083Z,100534.59
2023-04-04T09:01:49.302Z,100496.09
2023-04-04T09:04:20.695Z,100582.56
2023-04-04T09:06:54.664Z,100591.28
2023-04-04T09:09:29.006Z,100578.28
2023-04-04T09:12:01.319Z,100597.22
2023-04-04T09:14:32.159Z,100579.13
2023-04-04T09:17:01.563Z,100598.44
2023-04-04T09:19:31.271Z,100586.69
2023-04-04T09:22:00.867Z,100595.16
2023-04-04T09:24:40.253Z,100606.16
2023-04-04T09:27:12.337Z,100599.91
2023-04-04T09:29:43.030Z,100599.03
2023-04-04T09:36:47.381Z,100481.88
2023-04-04T09:39:17.955Z,100534.97
2023-04-04T09:41:48.755Z,100587.41
2023-04-04T09:44:19.670Z,100576.06
2023-04-04T09:46:52.294Z,100579.56
2023-04-04T09:49:22.726Z,100578.38
2023-04-04T09:51:56.947Z,100591.00
2023-04-04T09:54:29.647Z,100584.59
2023-04-04T09:57:02.178Z,100589.41
2023-04-04T09:59:38.730Z,100590.50
2023-04-04T10:02:12.269Z,100590.28
2023-04-04T10:04:44.506Z,100590.78
2023-04-04T10:07:15.014Z,100597.59
2023-04-04T10:09:54.431Z,100596.63
2023-04-04T10:12:26.971Z,100580.19
2023-04-04T10:15:01.468Z,100601.13
2023-04-04T10:17:35.168Z,100590.63
2023-04-04T10:20:07.765Z,100586.53
2023-04-04T10:22:41.581Z,100553.72
2023-04-04T10:25:12.078Z,100590.50
2023-04-04T10:27:41.255Z,100582.56
2023-04-04T10:30:13.308Z,100579.06
2023-04-04T10:32:52.136Z,100569.88
2023-04-04T10:35:25.819Z,100569.47
2023-04-04T10:37:59.141Z,100583.84
2023-04-04T10:40:38.964Z,100576.88
2023-04-04T10:43:09.131Z,100577.28
2023-04-04T10:45:43.648Z,100568.31
2023-04-04T10:48:13.673Z,100555.91
2023-04-04T10:50:46.202Z,100566.84
2023-04-04T10:53:16.394Z,100557.84
2023-04-04T10:55:49.657Z,100580.84
2023-04-04T10:58:21.431Z,100591.06
2023-04-04T11:00:55.358Z,100578.63
2023-04-04T11:03:25.696Z,100578.88
2023-04-04T11:06:01.817Z,100572.63
2023-04-04T11:08:33.208Z,100583.69
2023-04-04T11:11:16.082Z,100574.91
2023-04-04T11:14:10.869Z,100575.28
2023-04-04T11:16:50.890Z,100561.88
2023-04-04T11:19:22.458Z,100537.91
2023-04-04T11:21:53.560Z,100555.75
2023-04-04T11:24:27.883Z,100569.22
2023-04-04T11:27:00.331Z,100576.59
2023-04-04T11:29:54.406Z,100548.09
2023-04-04T11:32:38.135Z,100571.72
2023-04-04T11:35:13.037Z,100565.66
2023-04-04T11:38:23.598Z,100552.19
2023-04-04T11:40:57.174Z,100574.50
2023-04-04T11:43:27.398Z,100574.47
2023-04-04T11:46:09.160Z,100591.69
2023-04-04T11:48:42.041Z,100554.88
2023-04-04T11:51:16.750Z,100578.69
2023-04-04T11:53:48.202Z,100573.41
2023-04-04T11:56:18.204Z,100562.97
2023-04-04T11:59:01.649Z,100577.59
2023-04-04T12:01:38.916Z,100574.22
2023-04-04T12:04:14.375Z,100571.09
2023-04-04T12:06:44.950Z,100569.97
2023-04-04T12:09:22.767Z,100575.16
2023-04-04T12:11:52.483Z,100569.66
2023-04-04T12:14:37.125Z,100565.88
2023-04-04T12:17:10.702Z,100584.09
2023-04-04T12:19:42.472Z,100562.84
2023-04-04T12:22:11.998Z,100504.81
2023-04-04T12:24:48.488Z,100564.91
2023-04-04T12:27:19.811Z,100577.91
2023-04-04T12:29:50.805Z,100575.97
2023-04-04T12:32:24.512Z,100575.56
2023-04-04T12:35:01.244Z,100576.47
2023-04-04T12:37:36.238Z,100549.94
2023-04-04T12:40:11.950Z,100549.28
2023-04-04T12:42:42.514Z,100495.72
2023-04-04T12:45:13.759Z,100553.66
2023-04-04T12:47:56.458Z,100546.72
2023-04-04T12:50:51.567Z,100572.03
2023-04-04T12:53:30.004Z,100570.41
2023-04-04T12:56:05.044Z,100571.16
2023-04-04T12:58:37.825Z,100409.66
2023-04-04T13:01:08.457Z,100464.47
2023-04-04T13:06:36.532Z,100422.00
2023-04-04T13:09:39.494Z,100546.44
2023-04-04T13:12:19.656Z,100565.56
2023-04-04T13:15:07.499Z,100543.59
2023-04-04T13:18:05.184Z,100470.47
2023-04-04T13:24:40.998Z,100560.44
2023-04-04T13:27:20.471Z,100436.94
2023-04-04T13:29:49.869Z,100541.28
2023-04-04T13:32:21.259Z,100436.97
2023-04-04T13:34:54.286Z,100531.16
2023-04-04T13:37:24.621Z,100519.31
2023-04-04T13:40:05.821Z,100522.31
2023-04-04T13:42:38.156Z,100531.84
2023-04-04T13:45:09.978Z,100535.44
2023-04-04T13:47:43.641Z,100539.94
2023-04-04T13:50:54.111Z,100548.03
2023-04-04T13:53:33.860Z,100533.19
2023-04-04T13:58:39.487Z,100492.44
2023-04-04T14:01:13.045Z,100535.91
2023-04-04T14:03:45.173Z,100529.66
2023-04-04T14:06:18.280Z,100514.25
2023-04-04T14:09:01.880Z,100525.50
2023-04-04T14:11:38.135Z,100518.88
2023-04-04T14:14:14.903Z,100532.47
2023-04-04T14:16:44.476Z,100481.63
2023-04-04T14:19:13.552Z,100524.72
2023-04-04T14:21:46.231Z,100517.31
2023-04-04T14:24:18.424Z,100486.25
2023-04-04T14:26:52.164Z,100517.31
2023-04-04T14:29:22.739Z,100504.16
2023-04-04T14:31:54.664Z,100515.72
2023-04-04T14:34:27.644Z,100523.97
2023-04-04T14:37:00.204Z,100497.81
2023-04-04T14:39:31.944Z,100520.72
2023-04-04T14:42:08.087Z,100508.50
2023-04-04T14:44:38.705Z,100512.38
2023-04-04T14:47:12.244Z,100510.22
2023-04-04T14:49:43.046Z,100510.03
2023-04-04T14:52:12.497Z,100511.59
2023-04-04T14:54:45.127Z,100515.53
2023-04-04T14:57:18.124Z,100303.63
2023-04-04T14:59:47.867Z,100510.88
2023-04-04T15:02:19.315Z,100510.78
2023-04-04T15:04:48.690Z,100513.50
2023-04-04T15:07:24.655Z,100520.16
2023-04-04T15:09:53.857Z,100515.84
2023-04-04T15:12:24.779Z,100515.03
2023-04-04T15:14:53.998Z,100508.16
2023-04-04T15:17:23.607Z,100504.22
2023-04-04T15:19:52.845Z,100499.50
2023-04-04T15:22:22.142Z,100503.44
2023-04-04T15:24:54.914Z,100519.03
2023-04-04T15:27:32.937Z,100510.28
2023-04-04T15:30:11.039Z,100523.91
2023-04-04T15:32:40.933Z,100495.81
2023-04-04T15:35:18.332Z,100505.81
2023-04-04T15:37:50.224Z,100527.16
2023-04-04T15:40:20.406Z,100502.78
2023-04-04T15:42:51.393Z,100507.53
2023-04-04T15:45:21.013Z,100512.22
2023-04-04T15:47:51.546Z,100525.59
2023-04-04T15:50:21.641Z,100515.13
2023-04-04T15:52:51.053Z,100523.16
2023-04-04T15:55:23.211Z,100522.97
2023-04-04T15:57:53.890Z,100456.34
2023-04-04T16:00:25.012Z,100512.81
2023-04-04T16:02:58.024Z,100512.88
2023-04-04T16:05:30.821Z,100517.78
2023-04-04T16:08:00.160Z,100494.16
2023-04-04T16:10:29.551Z,100511.59
2023-04-04T16:13:03.457Z,100509.88
2023-04-04T16:15:35.123Z,100501.63
2023-04-04T16:18:09.679Z,100449.53
2023-04-04T16:20:58.621Z,100496.38
2023-04-04T16:23:30.703Z,100465.38
2023-04-04T16:26:02.249Z,100499.84
2023-04-04T16:28:33.268Z,100420.31
2023-04-04T16:31:02.768Z,100412.19
2023-04-04T16:33:32.228Z,100478.19
2023-04-04T16:36:17.527Z,100266.94
2023-04-04T16:38:47.736Z,100362.50
2023-04-04T16:41:18.487Z,100293.59
2023-04-04T16:43:52.897Z,100467.72
2023-04-04T16:46:22.753Z,100401.06
2023-04-04T16:48:52.158Z,100473.72
2023-04-04T16:51:21.986Z,100284.88
2023-04-04T16:54:04.263Z,100403.72
2023-04-04T16:56:34.977Z,100306.53
2023-04-04T16:59:05.808Z,100467.31
2023-04-04T17:01:35.349Z,100465.22
2023-04-04T17:04:06.006Z,100461.28
2023-04-04T17:06:35.500Z,100441.97
2023-04-04T17:09:05.951Z,100458.34
2023-04-04T17:11:35.459Z,100448.31
2023-04-04T17:14:06.331Z,100440.06
2023-04-04T17:16:35.498Z,100452.94
2023-04-04T17:19:06.980Z,100453.75
2023-04-04T17:21:36.375Z,100457.00
2023-04-04T17:24:12.335Z,100362.31
2023-04-04T17:26:49.066Z,100287.97
2023-04-04T17:29:20.878Z,100380.91
2023-04-04T17:31:51.208Z,100448.66
2023-04-04T17:34:23.836Z,100455.47
2023-04-04T17:36:54.074Z,100423.72
2023-04-04T17:39:23.981Z,100434.66
2023-04-04T17:41:53.780Z,100388.13
2023-04-04T17:44:27.134Z,100433.59
2023-04-04T17:46:57.016Z,100437.59
2023-04-04T17:49:27.245Z,100451.91
2023-04-04T17:51:57.165Z,100420.69
2023-04-04T17:54:27.029Z,100399.19
2023-04-04T17:56:57.757Z,100462.59
2023-04-04T17:59:28.253Z,100416.31
2023-04-04T18:02:00.311Z,100369.22
2023-04-04T18:04:30.893Z,100419.31
2023-04-04T18:07:00.868Z,100451.03
2023-04-04T18:09:30.612Z,100448.72
2023-04-04T18:12:01.415Z,100448.56
2023-04-04T18:14:32.837Z,100420.16
2023-04-04T18:17:02.718Z,100456.44
2023-04-04T18:19:34.596Z,100449.84
2023-04-04T18:22:04.080Z,100455.41
2023-04-04T18:24:36.766Z,100453.44
2023-04-04T18:27:06.263Z,100448.75
2023-04-04T18:29:36.861Z,100431.09
2023-04-04T18:32:18.793Z,100438.00
2023-04-04T18:34:48.707Z,100403.78
2023-04-04T18:37:17.903Z,100374.31
2023-04-04T18:39:47.847Z,100380.44
2023-04-04T18:42:17.221Z,100392.94
2023-04-04T18:44:47.959Z,100440.97
2023-04-04T18:47:20.601Z,100412.75
2023-04-04T18:49:49.964Z,100457.09
2023-04-04T18:52:21.039Z,100456.84
2023-04-04T18:54:52.164Z,100449.63
2023-04-04T18:57:21.642Z,100468.34
2023-04-04T18:59:53.750Z,100475.72
2023-04-04T19:02:23.259Z,100480.78
2023-04-04T19:04:57.502Z,100451.66
2023-04-04T19:07:40.658Z,100469.25
2023-04-04T19:10:14.266Z,100484.69
2023-04-04T19:12:46.131Z,100486.16
2023-04-04T19:15:17.863Z,100474.19
2023-04-04T19:17:48.037Z,100449.03
2023-04-04T19:20:17.747Z,100469.81
2023-04-04T19:22:49.121Z,100403.66
2023-04-04T19:25:20.556Z,100461.44
2023-04-04T19:27:57.995Z,100445.47
2023-04-04T19:30:49.132Z,100459.09
2023-04-04T19:33:23.746Z,100445.53
2023-04-04T19:35:59.382Z,100459.22
2023-04-04T19:38:30.754Z,100446.25
2023-04-04T19:41:01.447Z,100449.69
2023-04-04T19:43:33.037Z,100461.31
2023-04-04T19:46:10.055Z,100466.72
2023-04-04T19:48:45.423Z,100462.13
2023-04-04T19:51:38.283Z,100467.28
2023-04-04T19:54:12.829Z,100468.72
2023-04-04T19:56:42.670Z,100451.16
2023-04-04T19:59:57.414Z,100454.66
2023-04-04T20:03:00.026Z,100483.31
2023-04-04T20:06:01.970Z,100472.34
2023-04-04T20:08:44.188Z,100461.88
2023-04-04T20:11:14.586Z,100482.00
2023-04-04T20:13:44.883Z,100492.88
2023-04-04T20:16:15.315Z,100499.53
2023-04-04T20:18:46.765Z,100499.78
2023-04-04T20:21:17.946Z,100463.19
2023-04-04T20:23:53.507Z,100476.25
2023-04-04T20:26:41.002Z,100499.25
2023-04-04T20:29:11.544Z,100469.88
2023-04-04T20:31:43.935Z,100490.69
2023-04-04T20:34:37.361Z,100489.91
2023-04-04T20:37:13.463Z,100463.03
2023-04-04T20:39:49.389Z,100488.75
2023-04-04T20:42:21.537Z,100478.09
2023-04-04T20:44:52.875Z,100461.56
2023-04-04T20:47:44.777Z,100463.66
2023-04-04T20:50:47.387Z,100474.69
2023-04-04T20:53:20.427Z,100472.53
2023-04-04T20:55:50.661Z,100473.31
2023-04-04T20:58:28.051Z,100390.09
2023-04-04T21:01:01.489Z,100461.97
2023-04-04T21:03:33.740Z,100437.31
2023-04-04T21:06:11.561Z,100433.50
2023-04-04T21:08:46.005Z,100447.03
2023-04-04T21:11:22.050Z,100422.47
2023-04-04T21:13:51.115Z,100427.88
2023-04-04T21:16:25.477Z,100431.06
2023-04-04T21:19:00.878Z,100419.66
2023-04-04T21:21:31.576Z,100426.56
2023-04-04T21:24:01.659Z,100377.09
2023-04-04T21:26:35.310Z,100422.72
2023-04-04T21:29:06.930Z,100420.34
2023-04-04T21:31:39.546Z,100423.53
2023-04-04T21:34:14.471Z,100416.94
2023-04-04T21:36:53.565Z,100397.94
2023-04-04T21:39:24.727Z,100422.34
2023-04-04T21:41:56.584Z,100411.75
2023-04-04T21:44:26.030Z,100411.41
2023-04-04T21:46:56.037Z,100411.94
2023-04-04T21:49:26.200Z,100393.63
2023-04-04T21:51:56.591Z,100406.31
2023-04-04T21:54:25.759Z,100406.84
2023-04-04T21:56:55.036Z,100379.38
2023-04-04T21:59:24.232Z,100398.66
2023-04-04T22:01:53.774Z,100398.09
2023-04-04T22:04:22.867Z,100381.91
2023-04-04T22:06:51.873Z,100374.75
2023-04-04T22:09:25.873Z,100385.19
2023-04-04T22:11:58.876Z,100379.03
2023-04-04T22:14:30.070Z,100366.59
2023-04-04T22:16:59.388Z,100377.69
2023-04-04T22:19:34.809Z,100371.22
2023-04-04T22:22:05.587Z,100389.78
2023-04-04T22:24:36.104Z,100384.16
2023-04-04T22:27:05.332Z,100366.75
2023-04-04T22:29:34.678Z,100371.16
2023-04-04T22:32:03.932Z,100383.50
2023-04-04T22:34:33.270Z,100392.75
2023-04-04T22:37:03.648Z,100349.78
2023-04-04T22:39:32.899Z,100380.28
2023-04-04T22:42:03.395Z,100397.25
2023-04-04T22:44:36.097Z,100375.38
2023-04-04T22:47:06.449Z,100404.66
2023-04-04T22:49:37.884Z,100375.03
2023-04-04T22:52:07.397Z,100374.00
2023-04-04T22:54:36.478Z,100384.53
2023-04-04T22:57:06.876Z,100365.59
2023-04-04T22:59:35.954Z,100382.53
2023-04-04T23:02:05.786Z,100361.19
2023-04-04T23:04:34.830Z,100361.88
2023-04-04T23:07:04.377Z,100340.88
2023-04-04T23:09:34.484Z,100365.53
2023-04-04T23:12:04.942Z,100332.59
2023-04-04T23:14:39.175Z,100367.06
2023-04-04T23:17:12.819Z,100360.03
2023-04-04T23:19:45.466Z,100368.03
2023-04-04T23:22:14.727Z,100362.41
2023-04-04T23:24:46.807Z,100355.44
2023-04-04T23:27:16.721Z,100336.00
2023-04-04T23:29:47.902Z,100319.69
2023-04-04T23:32:19.010Z,100330.16
2023-04-04T23:34:48.316Z,100286.78
2023-04-04T23:37:17.683Z,100312.69
2023-04-04T23:39:48.931Z,100337.84
2023-04-04T23:42:18.335Z,100350.28
2023-04-04T23:44:48.973Z,100351.00
2023-04-04T23:47:24.358Z,100373.63
2023-04-04T23:49:55.351Z,100346.75
2023-04-04T23:52:24.436Z,100288.50
2023-04-04T23:54:53.444Z,100328.25
2023-04-04T23:57:22.665Z,100347.13
2023-04-04T23:59:53.093Z,100348.56
